LFBE/EGC METAR and TAF weather

Enter ICAO airport designator
Station Type Date Time Source
LFBE METAR 2021/04/13 07:00 UTC NOAA

LFBE 130700Z AUTO VRB02KT CAVOK 02/01 Q1029 NOSIG


Station Type Date Time Source
LFBE Decoded METAR 2021/04/13 07:00 UTC NOAA

Bergerac, France (LFBE) 44-49N 000-31E 52M
Apr 13, 2021 - 03:00 AM EDT / 2021.04.13 0700 UTC
Wind: Variable at 2 MPH (2 KT):0
Visibility: greater than 7 mile(s):0
Temperature: 35 F (2 C)
Dew Point: 33 F (1 C)
Relative Humidity: 93%
Pressure (altimeter): 30.39 in. Hg (1029 hPa)
ob: LFBE 130700Z AUTO VRB02KT CAVOK 02/01 Q1029 NOSIG
cycle: 7

Station Type Date Time Source
LFBE TAF 2021/04/13 06:26 UTC NOAA

TAF LFBE 130500Z 1306/1406 06008KT 4000 BR NSC
BECMG 1306/1308 CAVOK

Example: see airport list